Terminal Aerodrome Forecast
Issued by NWS

Current Version | Previous Version | Text Only | Print | Product List | Glossary On
Versions: 1 2 3 4 5 6 7 8 9 10 11 12 13 14 15 16 17 18 19 20 21 22 23 24 25 26 27 28 29 30 31 32 33 34
302 FTUS41 KOKX 250534 TAFGON TAF KGON 250534Z 2506/2606 VRB03KT 1/4SM FG VV002 FM251100 VRB03KT 1SM BR SCT002 FM251200 26006KT P6SM FEW250 TEMPO 2512/2513 4SM HZ FM251600 25010KT P6SM FEW250 FM252300 26006KT P6SM FEW080 FM260500 00000KT P6SM SCT080=

USA.gov is the U.S. government's official web portal to all federal, state and local government web resources and services.